| Date | Time | Temp. (oF) | Dew Point (oF) | Rel. Hum. (%) | Press. (in.) | Wind Dir. | Wind Speed (mph) | Hourly Rainfall (in.) |
|
|---|---|---|---|---|---|---|---|---|---|
| 1 | 05/09 | 00:00 | 49 | 42 | 78 | 29.90 | S | 0 | 0.00 |
| 2 | 05/08 | 23:00 | 52 | 40 | 66 | 29.89 | S | 0 | 0.00 |
| 3 | 05/08 | 22:00 | 56 | 39 | 54 | 29.86 | SSW | 0 | 0.00 |
| 4 | 05/08 | 21:00 | 60 | 40 | 48 | 29.83 | SSW | 0 | 0.00 |
| 5 | 05/08 | 20:00 | 62 | 29 | 30 | 29.79 | WSW | 5 | 0.00 |
| 6 | 05/08 | 19:00 | 65 | 29 | 27 | 29.76 | WSW | 2 | 0.00 |
| 7 | 05/08 | 18:00 | 65 | 29 | 27 | 29.75 | SW | 8 | 0.00 |
| 8 | 05/08 | 17:00 | 66 | 28 | 25 | 29.73 | WSW | 15 | 0.00 |
| 9 | 05/08 | 16:00 | 67 | 30 | 26 | 29.72 | W | 18 | 0.00 |
| 10 | 05/08 | 15:00 | 66 | 30 | 27 | 29.73 | N | 13 | 0.00 |
| 11 | 05/08 | 14:00 | 64 | 28 | 26 | 29.73 | NNW | 13 | 0.00 |
| 12 | 05/08 | 13:00 | 64 | 29 | 27 | 29.71 | WSW | 18 | 0.00 |
| 13 | 05/08 | 12:00 | 63 | 30 | 30 | 29.69 | WSW | 19 | 0.00 |
| 14 | 05/08 | 11:00 | 62 | 38 | 42 | 29.67 | WSW | 13 | 0.00 |
| 15 | 05/08 | 10:00 | 61 | 46 | 59 | 29.64 | WSW | 11 | 0.00 |
| 16 | 05/08 | 09:00 | 58 | 52 | 82 | 29.62 | SSW | 2 | 0.00 |
| 17 | 05/08 | 08:00 | 54 | 50 | 88 | 29.61 | S | 0 | 0.01 |
| 18 | 05/08 | 07:00 | 52 | 48 | 88 | 29.59 | SSW | 0 | 0.00 |
| 19 | 05/08 | 06:00 | 52 | 47 | 85 | 29.58 | SW | 0 | 0.02 |
| 20 | 05/08 | 05:00 | 52 | 46 | 83 | 29.56 | S | 4 | 0.00 |
| 21 | 05/08 | 04:00 | 52 | 46 | 82 | 29.58 | S | 2 | 0.00 |
| 22 | 05/08 | 03:00 | 52 | 46 | 81 | 29.60 | S | 0 | 0.00 |
| 23 | 05/08 | 02:00 | 53 | 46 | 78 | 29.62 | SSW | 4 | 0.00 |
| 24 | 05/08 | 01:00 | 53 | 45 | 76 | 29.65 | S | 3 | 0.00 |